Airfield :
LOGIN :

Register | Disclaimer

   EN    FR    IT 

 










Legend :    VFR   Marginal VFR   IFR   Intensive IFR   Very Intensive IFR
Visi :
Ceiling :
>= 8 km
>= 3000ft
5 to 8 km
1000 to 3000 ft
1500m to 5 km
500 to 1000 ft
800 to 1500m
200 to 500 ft
< 800m
< 200 ft
Symbols :   Thunderstorms  Fog  Heavy snow  Heavy precipitations  Wind > 20 kt
SIGMETs :     Misc.  Thunderstorms  Icing  Turbulence  Mountain Waves  Volcanic Ashes






- Airport Elevation : 102 ft
- IATA code : CNG


LFBG - Cognac

CURRENT METAR :
  • 261600Z AUTO 27012KT 9999 SCT041 BKN078 BKN180 19/10 Q1019

EXPIRED METARs :
  • 261530Z AUTO 25012KT 9999 FEW037 20/10 Q1019
  • 261500Z AUTO 26013KT 9999 FEW043 21/11 Q1019
  • 261430Z AUTO 26011KT 9999 FEW036 21/11 Q1019
  • 261400Z AUTO 25010KT 9999 SCT045 BKN054 20/11 Q1019
  • 261330Z AUTO 24011KT 9999 FEW025 SCT096 21/10 Q1019
  • 261300Z AUTO 24011KT 9999 FEW043/// BKN050/// BKN096/// ///TCU 20/10 Q1019
  • 261230Z AUTO 25009KT 210V270 9999 FEW041 SCT050 BKN096 21/11 Q1019
  • 261200Z AUTO 27010KT 230V300 9999 SCT040 SCT047 BKN098 20/10 Q1019
  • 261130Z AUTO 26011KT 220V290 9999 BKN047 20/11 Q1019

Expired Forecast.



MET'MAP, your aeronautical weather chart ! - Copyright ORBIFLY December 2007 - Disclaimer

ORBIFLY MET'MAP TEAM :

Programming & Development : Alexandra Zaïnal
Original concept : Baudouin d'Aumeries
Technical & hardware support : Manuel Goepfert
Assistance : Marc-Olivier Méhu




SOURCES & CREDITS :

   NOAA